Riverside — WDC2627 — position and weather

sailwx.info

Track history (hours):
 
Tides and Currents Weather Stations Pressure Air Temp Water Temp Dewpoint Dewpoint Depression Visibility Wind Speed Wind Dir Waves Ship Positions

Riverside

Owner: Kirby Inland Marine, LP, Houston, TX. More information available from US FCC via Universal Licensing System and Coast Guard Vessel Documentation Center.

Last reported at 2018-Jun-13 19:54 UTC. Time now 2018-Jun-18 15:18 UTC.
Position N 28°54' W 095°24'.

Length 203 m.

Type: . MMSI: 366995750.

Date/timePositionNaut miles runAvg speedWind from/ knotsBaromVisibWave heightAir tempDewpointWater temp
2018-Jun-13 19:54N 28°54' W 095°24'6 4.2
2018-Jun-13 18:22N 28°57' W 095°18'2 5.2
2018-Jun-13 17:59N 28°59' W 095°16'3 5.3
2018-Jun-13 17:30N 29°01' W 095°14'2 4.7
2018-Jun-13 17:00N 29°03' W 095°13'2 4.5
2018-Jun-13 16:30N 29°05' W 095°12'2 4.7
2018-Jun-13 16:01N 29°07' W 095°11'3 5.0
2018-Jun-13 15:30N 29°09' W 095°09'3 5.6
2018-Jun-13 15:00N 29°10' W 095°06'3 5.4
2018-Jun-13 14:30N 29°12' W 095°04'2 4.6
2018-Jun-13 14:00N 29°14' W 095°02'3 5.2
2018-Jun-13 13:30N 29°16' W 094°60'3 5.7
2018-Jun-13 13:01N 29°17' W 094°57'3 6.1
2018-Jun-13 12:30N 29°17' W 094°54'3 6.2
2018-Jun-13 12:00N 29°19' W 094°51'3 5.1
2018-Jun-13 11:30N 29°21' W 094°49'2 4.9
2018-Jun-13 11:00N 29°23' W 094°47'2 4.6
2018-Jun-13 10:29N 29°24' W 094°45'2 4.3
2018-Jun-13 10:00N 29°26' W 094°43'0 0.0
2018-Jun-13 09:29N 29°26' W 094°43'0 0.2
2018-Jun-13 08:55N 29°26' W 094°43'0 0.0
2018-Jun-13 05:43N 29°26' W 094°43'0 0.0
2018-Jun-13 05:29N 29°26' W 094°43'0 0.0
2018-Jun-13 04:57N 29°26' W 094°43'0 0.0
2018-Jun-13 04:30N 29°26' W 094°43'0 0.0
2018-Jun-13 04:00N 29°26' W 094°43'0 0.0
2018-Jun-13 03:30N 29°26' W 094°43'0 0.2
2018-Jun-13 02:57N 29°26' W 094°43'2 4.5
2018-Jun-13 02:27N 29°27' W 094°41'3 5.8
2018-Jun-13 01:59N 29°28' W 094°38'3 5.6
2018-Jun-13 01:26N 29°29' W 094°35'3 5.5
2018-Jun-13 00:56N 29°31' W 094°32'7 3.3
2018-Jun-12 22:51N 29°34' W 094°25'2 4.4
2018-Jun-12 22:26N 29°36' W 094°25'3 4.5
2018-Jun-12 21:46N 29°37' W 094°21'1 4.4
2018-Jun-12 21:29N 29°37' W 094°20'2 4.3
2018-Jun-12 20:58N 29°38' W 094°18'2 4.7
2018-Jun-12 20:29N 29°39' W 094°15'2 5.1
2018-Jun-12 20:00N 29°40' W 094°13'2 4.8
2018-Jun-12 19:31N 29°41' W 094°10'2 4.3
2018-Jun-12 19:00N 29°42' W 094°08'2 4.3
2018-Jun-12 18:30N 29°44' W 094°06'2 4.8
2018-Jun-12 18:00N 29°45' W 094°04'2 4.6
2018-Jun-12 17:30N 29°47' W 094°02'2 4.5
2018-Jun-12 17:00N 29°48' W 094°00'2 4.7
2018-Jun-12 16:31N 29°49' W 093°58'3 5.1
2018-Jun-12 16:00N 29°52' W 093°56'3 6.2
2018-Jun-12 15:30N 29°54' W 093°54'3 5.8
2018-Jun-12 15:00N 29°56' W 093°52'2 5.0
2018-Jun-12 14:31N 29°58' W 093°51'3 5.4
2018-Jun-12 14:00N 29°59' W 093°48'3 5.6
2018-Jun-12 13:30N 30°01' W 093°45'3 5.3
2018-Jun-12 13:00N 30°03' W 093°43'2 4.5
2018-Jun-12 12:30N 30°04' W 093°41'2 4.8
2018-Jun-12 12:00N 30°04' W 093°38'2 4.7
2018-Jun-12 11:30N 30°04' W 093°35'2 3.6
2018-Jun-12 11:00N 30°04' W 093°33'2 4.6
2018-Jun-12 10:30N 30°04' W 093°30'2 5.0
2018-Jun-12 10:00N 30°04' W 093°28'3 5.1
2018-Jun-12 09:30N 30°04' W 093°25'2 4.2
2018-Jun-12 09:00N 30°04' W 093°22'1 2.3
2018-Jun-12 08:30N 30°04' W 093°21'2 4.1
2018-Jun-12 08:00N 30°06' W 093°19'1 2.6
2018-Jun-12 07:30N 30°06' W 093°18'1 2.1
2018-Jun-12 07:01N 30°05' W 093°17'1 1.7
2018-Jun-12 06:30N 30°04' W 093°16'0 0.1
2018-Jun-12 06:00N 30°04' W 093°16'0 0.0
2018-Jun-12 05:30N 30°04' W 093°16'0 0.0
2018-Jun-12 04:59N 30°04' W 093°16'0 0.0
2018-Jun-12 04:30N 30°04' W 093°16'0 0.0
2018-Jun-12 04:00N 30°04' W 093°16'0 0.0
2018-Jun-12 03:30N 30°04' W 093°16'0 0.0
2018-Jun-12 03:00N 30°04' W 093°16'0 0.0
2018-Jun-12 02:30N 30°04' W 093°16'0 0.0
2018-Jun-12 02:00N 30°04' W 093°16'1 1.1
2018-Jun-12 01:30N 30°04' W 093°16'0 0.7
2018-Jun-12 01:00N 30°04' W 093°16'1 1.5
2018-Jun-12 00:31N 30°03' W 093°16'1 2.5
2018-Jun-12 00:01N 30°02' W 093°15'1 2.4
2018-Jun-11 23:31N 30°01' W 093°14'2 3.3
2018-Jun-11 23:01N 29°60' W 093°13'1 2.3
2018-Jun-11 22:30N 29°59' W 093°12'0 0.4
2018-Jun-11 22:01N 29°59' W 093°12'0 0.0
2018-Jun-11 21:31N 29°59' W 093°12'0 0.0
2018-Jun-11 21:01N 29°59' W 093°12'0 0.0
2018-Jun-11 20:31N 29°59' W 093°12'0 0.0
2018-Jun-11 20:00N 29°59' W 093°12'0 0.0
2018-Jun-11 19:31N 29°59' W 093°12'0 0.0
2018-Jun-11 19:00N 29°59' W 093°12'0 0.0
2018-Jun-11 18:30N 29°59' W 093°12'0 0.0
2018-Jun-11 18:01N 29°59' W 093°12'0 0.0
2018-Jun-11 17:30N 29°59' W 093°12'0 0.0
2018-Jun-11 17:00N 29°59' W 093°12'0 0.0
2018-Jun-11 16:31N 29°59' W 093°12'0 0.0
2018-Jun-11 16:01N 29°59' W 093°12'0 0.0
2018-Jun-11 15:31N 29°59' W 093°12'0 0.1
2018-Jun-11 15:01N 29°59' W 093°12'0 0.0
2018-Jun-11 14:31N 29°59' W 093°12'0 0.0
2018-Jun-11 14:00N 29°59' W 093°12'0 0.0
2018-Jun-11 13:31N 29°59' W 093°12'0 0.0
2018-Jun-11 13:01N 29°59' W 093°12'0 0.3
2018-Jun-11 12:30N 29°59' W 093°12'1 2.6
2018-Jun-11 12:01N 29°58' W 093°11'2 3.1
2018-Jun-11 11:31N 29°56' W 093°10'1 3.0
2018-Jun-11 11:01N 29°56' W 093°08'2 4.0
2018-Jun-11 10:30N 29°56' W 093°06'38 4.3
2018-Jun-11 01:49N 29°52' W 092°23'1 4.5
2018-Jun-11 01:29N 29°51' W 092°22'1 3.0
2018-Jun-11 01:01N 29°51' W 092°20'2 3.3
2018-Jun-11 00:30N 29°50' W 092°18'2 4.3
2018-Jun-11 00:01N 29°49' W 092°17'2 3.9
2018-Jun-10 23:31N 29°48' W 092°15'2 4.2
2018-Jun-10 23:01N 29°47' W 092°12'1 1.4
2018-Jun-10 22:31N 29°47' W 092°12'1 1.2
2018-Jun-10 22:01N 29°47' W 092°11'0 0.0
2018-Jun-10 21:31N 29°47' W 092°11'0 0.0
2018-Jun-10 21:01N 29°47' W 092°11'0 0.0
2018-Jun-10 20:31N 29°47' W 092°11'0 0.0
2018-Jun-10 20:01N 29°47' W 092°11'0 0.0
2018-Jun-10 19:31N 29°47' W 092°11'0 0.0
2018-Jun-10 19:01N 29°47' W 092°11'0 0.0
2018-Jun-10 18:31N 29°47' W 092°11'0 0.0
2018-Jun-10 18:01N 29°47' W 092°11'0 0.0
2018-Jun-10 17:30N 29°47' W 092°11'0 0.0
2018-Jun-10 17:01N 29°47' W 092°11'0 0.0
2018-Jun-10 16:31N 29°47' W 092°11'0 0.2
2018-Jun-10 16:01N 29°47' W 092°11'1 2.4
2018-Jun-10 15:31N 29°47' W 092°10'0 0.5
2018-Jun-10 15:01N 29°47' W 092°09'0 0.0
2018-Jun-10 14:31N 29°47' W 092°09'0 0.0
2018-Jun-10 13:31N 29°47' W 092°09'1 1.1
2018-Jun-10 13:01N 29°47' W 092°09'1 2.7
2018-Jun-10 12:30N 29°47' W 092°07'1 1.7
2018-Jun-10 12:00N 29°48' W 092°06'1 2.1
2018-Jun-10 11:31N 29°48' W 092°05'1 2.9
2018-Jun-10 11:00N 29°49' W 092°04'3 5.5
2018-Jun-10 10:31N 29°50' W 092°01'3 5.4
2018-Jun-10 10:00N 29°50' W 091°58'3 5.5
2018-Jun-10 09:31N 29°51' W 091°55'0 0.0
2018-Jun-08 17:20N 29°51' W 091°55'2 6.1
2018-Jun-08 16:57N 29°50' W 091°57'3 6.1
2018-Jun-08 16:27N 29°50' W 092°01'3 6.1
2018-Jun-08 15:59N 29°48' W 092°04'3 6.1
2018-Jun-08 15:31N 29°47' W 092°07'3 6.0
2018-Jun-08 15:00N 29°47' W 092°10'2 4.1
2018-Jun-08 14:31N 29°47' W 092°12'2 3.5
2018-Jun-08 14:00N 29°48' W 092°14'0 0.2
2018-Jun-08 13:30N 29°48' W 092°14'2 3.2
2018-Jun-08 13:01N 29°49' W 092°16'3 5.7
2018-Jun-08 12:31N 29°50' W 092°19'3 5.6
2018-Jun-08 11:59N 29°51' W 092°22'2 3.2
2018-Jun-08 11:30N 29°53' W 092°23'36 5.4
2018-Jun-08 04:47N 29°56' W 093°05'2 5.5
2018-Jun-08 04:30N 29°56' W 093°06'2 4.3
2018-Jun-08 04:00N 29°56' W 093°09'2 4.1
2018-Jun-08 03:30N 29°57' W 093°11'2 4.3
2018-Jun-08 03:01N 29°59' W 093°12'2 4.2
2018-Jun-08 02:31N 30°01' W 093°14'2 3.6
2018-Jun-08 02:01N 30°02' W 093°15'1 2.5
2018-Jun-08 01:30N 30°03' W 093°16'2 3.2
2018-Jun-08 01:00N 30°05' W 093°17'1 2.7
2018-Jun-08 00:30N 30°05' W 093°18'1 2.3
2018-Jun-08 00:00N 30°06' W 093°19'0 0.1
2018-Jun-07 23:30N 30°06' W 093°19'0 0.1
2018-Jun-07 23:00N 30°06' W 093°19'0 0.0
2018-Jun-07 22:30N 30°06' W 093°19'0 0.1
2018-Jun-07 22:00N 30°06' W 093°19'0 0.0
2018-Jun-07 21:30N 30°06' W 093°19'0 0.0
2018-Jun-07 21:00N 30°06' W 093°19'0 0.0
2018-Jun-07 20:30N 30°06' W 093°19'0 0.0
2018-Jun-07 20:00N 30°06' W 093°19'0 0.0
2018-Jun-07 19:30N 30°06' W 093°19'0 0.1
2018-Jun-07 19:00N 30°06' W 093°19'0 0.0
2018-Jun-07 18:30N 30°06' W 093°19'0 0.1
2018-Jun-07 18:00N 30°06' W 093°19'0 0.1
2018-Jun-07 17:30N 30°06' W 093°19'0 0.1
2018-Jun-07 17:00N 30°06' W 093°19'0 0.1
2018-Jun-07 16:30N 30°06' W 093°19'0 0.0
2018-Jun-07 16:00N 30°06' W 093°19'0 0.0
2018-Jun-07 15:30N 30°06' W 093°19'0 0.0
2018-Jun-07 15:00N 30°06' W 093°19'0 0.0
2018-Jun-07 14:30N 30°06' W 093°19'0 0.0
2018-Jun-07 14:00N 30°06' W 093°19'0 0.0
2018-Jun-07 13:30N 30°06' W 093°19'0 0.0
2018-Jun-07 13:00N 30°06' W 093°19'0 0.0
2018-Jun-07 12:30N 30°06' W 093°19'0 0.0
2018-Jun-07 12:00N 30°06' W 093°19'0 0.0
2018-Jun-07 11:30N 30°06' W 093°19'0 0.1
2018-Jun-07 11:00N 30°06' W 093°19'0 0.0
2018-Jun-07 10:30N 30°06' W 093°19'0 0.0
2018-Jun-07 10:00N 30°06' W 093°19'0 0.0
2018-Jun-07 09:30N 30°06' W 093°19'0 0.0
2018-Jun-07 09:00N 30°06' W 093°19'0 0.0
2018-Jun-07 08:30N 30°06' W 093°19'0 0.0
2018-Jun-07 08:00N 30°06' W 093°19'0 0.0
2018-Jun-07 07:30N 30°06' W 093°19'0 0.1
2018-Jun-07 07:00N 30°06' W 093°19'0 0.0
2018-Jun-07 06:30N 30°06' W 093°19'0 0.0
2018-Jun-07 06:00N 30°06' W 093°19'0 0.1
2018-Jun-07 05:30N 30°06' W 093°19'0 0.0
2018-Jun-07 05:00N 30°06' W 093°19'0 0.0
2018-Jun-07 04:30N 30°06' W 093°19'0 0.2
2018-Jun-07 04:00N 30°06' W 093°19'0 0.0
2018-Jun-07 03:30N 30°06' W 093°19'0 0.0
2018-Jun-07 03:00N 30°06' W 093°19'0 0.0
2018-Jun-07 02:30N 30°06' W 093°19'0 0.0
2018-Jun-07 02:00N 30°06' W 093°19'0 0.0
2018-Jun-07 01:30N 30°06' W 093°19'2 3.6
2018-Jun-07 01:00N 30°05' W 093°20'2 4.1
2018-Jun-07 00:30N 30°04' W 093°22'3 5.4
2018-Jun-07 00:00N 30°04' W 093°26'3 5.7
2018-Jun-06 23:30N 30°04' W 093°29'3 5.3
2018-Jun-06 22:59N 30°04' W 093°32'2 4.5
2018-Jun-06 22:30N 30°04' W 093°35'3 5.8
2018-Jun-06 22:00N 30°04' W 093°38'3 6.3
2018-Jun-06 21:30N 30°03' W 093°42'3 5.4
2018-Jun-06 21:00N 30°02' W 093°44'3 6.3
2018-Jun-06 20:30N 29°60' W 093°47'3 6.8
2018-Jun-06 20:00N 29°58' W 093°50'3 5.6
2018-Jun-06 19:30N 29°59' W 093°53'0 0.1
2018-Jun-06 19:00N 29°59' W 093°54'2 3.8
2018-Jun-06 18:30N 29°58' W 093°52'0 0.8
2018-Jun-06 18:00N 29°59' W 093°52'3 5.7
2018-Jun-06 17:30N 29°60' W 093°55'2 3.5
2018-Jun-06 17:00N 29°59' W 093°53'3 5.4
2018-Jun-06 16:30N 29°56' W 093°52'4 7.2
2018-Jun-06 16:00N 29°53' W 093°55'3 6.5
2018-Jun-06 15:30N 29°51' W 093°57'3 5.0
2018-Jun-06 15:00N 29°49' W 093°59'3 5.1
2018-Jun-06 14:30N 29°47' W 094°01'2 4.9
2018-Jun-06 14:00N 29°46' W 094°03'1 2.7
2018-Jun-06 13:30N 29°45' W 094°04'3 5.4
2018-Jun-06 13:00N 29°43' W 094°07'3 5.1
2018-Jun-06 12:30N 29°42' W 094°09'2 5.0
2018-Jun-06 12:00N 29°41' W 094°12'3 5.3
2018-Jun-06 11:30N 29°40' W 094°15'1 3.0
2018-Jun-06 11:00N 29°39' W 094°16'3 5.5
2018-Jun-06 10:30N 29°38' W 094°19'3 5.6
2018-Jun-06 10:00N 29°36' W 094°22'2 4.8
2018-Jun-06 09:30N 29°36' W 094°24'2 3.2
2018-Jun-06 09:00N 29°34' W 094°25'7 5.5
2018-Jun-06 07:39N 29°30' W 094°32'3 5.9
2018-Jun-06 07:13N 29°29' W 094°35'1 5.8
2018-Jun-06 07:00N 29°29' W 094°36'3 6.0
2018-Jun-06 06:30N 29°28' W 094°39'4 4.6
2018-Jun-06 05:39N 29°26' W 094°43'0 0.0
2018-Jun-06 04:48N 29°26' W 094°43'0 0.1
2018-Jun-06 04:29N 29°26' W 094°43'0 0.3
2018-Jun-06 03:57N 29°25' W 094°43'0 0.2
2018-Jun-06 03:30N 29°26' W 094°43'0 0.2
2018-Jun-06 02:51N 29°26' W 094°43'0 0.2
2018-Jun-06 02:30N 29°26' W 094°43'0 0.0
2018-Jun-06 02:00N 29°26' W 094°43'0 0.0
2018-Jun-06 01:30N 29°26' W 094°43'0 0.5
2018-Jun-06 01:00N 29°26' W 094°43'1 2.1
2018-Jun-06 00:30N 29°25' W 094°44'3 6.0
2018-Jun-06 00:00N 29°23' W 094°47'4 7.7
2018-Jun-05 23:30N 29°20' W 094°50'4 7.4
2018-Jun-05 22:59N 29°18' W 094°53'3 5.7
2018-Jun-05 22:30N 29°17' W 094°56'3 6.1
2018-Jun-05 22:00N 29°16' W 094°59'3 6.3
2018-Jun-05 21:29N 29°13' W 095°02'3 6.1
2018-Jun-05 21:00N 29°12' W 095°04'3 6.8
2018-Jun-05 20:30N 29°10' W 095°08'4 7.5
2018-Jun-05 20:00N 29°07' W 095°11'4 7.6
2018-Jun-05 19:30N 29°04' W 095°13'4 8.0
2018-Jun-05 19:00N 29°00' W 095°15'4 8.2
2018-Jun-05 18:30N 28°57' W 095°18'4 7.7
2018-Jun-05 17:59N 28°55' W 095°21'  
Track history (hours):
 
Tides and Currents Weather Stations Pressure Air Temp Water Temp Dewpoint Dewpoint Depression Visibility Wind Speed Wind Dir Waves Ship Positions

Riverside

Owner: Kirby Inland Marine, LP, Houston, TX. More information available from US FCC via Universal Licensing System and Coast Guard Vessel Documentation Center.

Last reported at 2018-Jun-13 19:54 UTC. Time now 2018-Jun-18 15:18 UTC.
Position N 28°54' W 095°24'.

Length 203 m.

Type: . MMSI: 366995750.

Date/timePositionNaut miles runAvg speedWind from/ knotsBaromVisibWave heightAir tempDewpointWater temp
2018-Jun-13 19:54N 28°54' W 095°24'6 4.2
2018-Jun-13 18:22N 28°57' W 095°18'2 5.2
2018-Jun-13 17:59N 28°59' W 095°16'3 5.3
2018-Jun-13 17:30N 29°01' W 095°14'2 4.7
2018-Jun-13 17:00N 29°03' W 095°13'2 4.5
2018-Jun-13 16:30N 29°05' W 095°12'2 4.7
2018-Jun-13 16:01N 29°07' W 095°11'3 5.0
2018-Jun-13 15:30N 29°09' W 095°09'3 5.6
2018-Jun-13 15:00N 29°10' W 095°06'3 5.4
2018-Jun-13 14:30N 29°12' W 095°04'2 4.6
2018-Jun-13 14:00N 29°14' W 095°02'3 5.2
2018-Jun-13 13:30N 29°16' W 094°60'3 5.7
2018-Jun-13 13:01N 29°17' W 094°57'3 6.1
2018-Jun-13 12:30N 29°17' W 094°54'3 6.2
2018-Jun-13 12:00N 29°19' W 094°51'3 5.1
2018-Jun-13 11:30N 29°21' W 094°49'2 4.9
2018-Jun-13 11:00N 29°23' W 094°47'2 4.6
2018-Jun-13 10:29N 29°24' W 094°45'2 4.3
2018-Jun-13 10:00N 29°26' W 094°43'0 0.0
2018-Jun-13 09:29N 29°26' W 094°43'0 0.2
2018-Jun-13 08:55N 29°26' W 094°43'0 0.0
2018-Jun-13 05:43N 29°26' W 094°43'0 0.0
2018-Jun-13 05:29N 29°26' W 094°43'0 0.0
2018-Jun-13 04:57N 29°26' W 094°43'0 0.0
2018-Jun-13 04:30N 29°26' W 094°43'0 0.0
2018-Jun-13 04:00N 29°26' W 094°43'0 0.0
2018-Jun-13 03:30N 29°26' W 094°43'0 0.2
2018-Jun-13 02:57N 29°26' W 094°43'2 4.5
2018-Jun-13 02:27N 29°27' W 094°41'3 5.8
2018-Jun-13 01:59N 29°28' W 094°38'3 5.6
2018-Jun-13 01:26N 29°29' W 094°35'3 5.5
2018-Jun-13 00:56N 29°31' W 094°32'7 3.3
2018-Jun-12 22:51N 29°34' W 094°25'2 4.4
2018-Jun-12 22:26N 29°36' W 094°25'3 4.5
2018-Jun-12 21:46N 29°37' W 094°21'1 4.4
2018-Jun-12 21:29N 29°37' W 094°20'2 4.3
2018-Jun-12 20:58N 29°38' W 094°18'2 4.7
2018-Jun-12 20:29N 29°39' W 094°15'2 5.1
2018-Jun-12 20:00N 29°40' W 094°13'2 4.8
2018-Jun-12 19:31N 29°41' W 094°10'2 4.3
2018-Jun-12 19:00N 29°42' W 094°08'2 4.3
2018-Jun-12 18:30N 29°44' W 094°06'2 4.8
2018-Jun-12 18:00N 29°45' W 094°04'2 4.6
2018-Jun-12 17:30N 29°47' W 094°02'2 4.5
2018-Jun-12 17:00N 29°48' W 094°00'2 4.7
2018-Jun-12 16:31N 29°49' W 093°58'3 5.1
2018-Jun-12 16:00N 29°52' W 093°56'3 6.2
2018-Jun-12 15:30N 29°54' W 093°54'3 5.8
2018-Jun-12 15:00N 29°56' W 093°52'2 5.0
2018-Jun-12 14:31N 29°58' W 093°51'3 5.4
2018-Jun-12 14:00N 29°59' W 093°48'3 5.6
2018-Jun-12 13:30N 30°01' W 093°45'3 5.3
2018-Jun-12 13:00N 30°03' W 093°43'2 4.5
2018-Jun-12 12:30N 30°04' W 093°41'2 4.8
2018-Jun-12 12:00N 30°04' W 093°38'2 4.7
2018-Jun-12 11:30N 30°04' W 093°35'2 3.6
2018-Jun-12 11:00N 30°04' W 093°33'2 4.6
2018-Jun-12 10:30N 30°04' W 093°30'2 5.0
2018-Jun-12 10:00N 30°04' W 093°28'3 5.1
2018-Jun-12 09:30N 30°04' W 093°25'2 4.2
2018-Jun-12 09:00N 30°04' W 093°22'1 2.3
2018-Jun-12 08:30N 30°04' W 093°21'2 4.1
2018-Jun-12 08:00N 30°06' W 093°19'1 2.6
2018-Jun-12 07:30N 30°06' W 093°18'1 2.1
2018-Jun-12 07:01N 30°05' W 093°17'1 1.7
2018-Jun-12 06:30N 30°04' W 093°16'0 0.1
2018-Jun-12 06:00N 30°04' W 093°16'0 0.0
2018-Jun-12 05:30N 30°04' W 093°16'0 0.0
2018-Jun-12 04:59N 30°04' W 093°16'0 0.0
2018-Jun-12 04:30N 30°04' W 093°16'0 0.0
2018-Jun-12 04:00N 30°04' W 093°16'0 0.0
2018-Jun-12 03:30N 30°04' W 093°16'0 0.0
2018-Jun-12 03:00N 30°04' W 093°16'0 0.0
2018-Jun-12 02:30N 30°04' W 093°16'0 0.0
2018-Jun-12 02:00N 30°04' W 093°16'1 1.1
2018-Jun-12 01:30N 30°04' W 093°16'0 0.7
2018-Jun-12 01:00N 30°04' W 093°16'1 1.5
2018-Jun-12 00:31N 30°03' W 093°16'1 2.5
2018-Jun-12 00:01N 30°02' W 093°15'1 2.4
2018-Jun-11 23:31N 30°01' W 093°14'2 3.3
2018-Jun-11 23:01N 29°60' W 093°13'1 2.3
2018-Jun-11 22:30N 29°59' W 093°12'0 0.4
2018-Jun-11 22:01N 29°59' W 093°12'0 0.0
2018-Jun-11 21:31N 29°59' W 093°12'0 0.0
2018-Jun-11 21:01N 29°59' W 093°12'0 0.0
2018-Jun-11 20:31N 29°59' W 093°12'0 0.0
2018-Jun-11 20:00N 29°59' W 093°12'0 0.0
2018-Jun-11 19:31N 29°59' W 093°12'0 0.0
2018-Jun-11 19:00N 29°59' W 093°12'0 0.0
2018-Jun-11 18:30N 29°59' W 093°12'0 0.0
2018-Jun-11 18:01N 29°59' W 093°12'0 0.0
2018-Jun-11 17:30N 29°59' W 093°12'0 0.0
2018-Jun-11 17:00N 29°59' W 093°12'0 0.0
2018-Jun-11 16:31N 29°59' W 093°12'0 0.0
2018-Jun-11 16:01N 29°59' W 093°12'0 0.0
2018-Jun-11 15:31N 29°59' W 093°12'0 0.1
2018-Jun-11 15:01N 29°59' W 093°12'0 0.0
2018-Jun-11 14:31N 29°59' W 093°12'0 0.0
2018-Jun-11 14:00N 29°59' W 093°12'0 0.0
2018-Jun-11 13:31N 29°59' W 093°12'0 0.0
2018-Jun-11 13:01N 29°59' W 093°12'0 0.3
2018-Jun-11 12:30N 29°59' W 093°12'1 2.6
2018-Jun-11 12:01N 29°58' W 093°11'2 3.1
2018-Jun-11 11:31N 29°56' W 093°10'1 3.0
2018-Jun-11 11:01N 29°56' W 093°08'2 4.0
2018-Jun-11 10:30N 29°56' W 093°06'38 4.3
2018-Jun-11 01:49N 29°52' W 092°23'1 4.5
2018-Jun-11 01:29N 29°51' W 092°22'1 3.0
2018-Jun-11 01:01N 29°51' W 092°20'2 3.3
2018-Jun-11 00:30N 29°50' W 092°18'2 4.3
2018-Jun-11 00:01N 29°49' W 092°17'2 3.9
2018-Jun-10 23:31N 29°48' W 092°15'2 4.2
2018-Jun-10 23:01N 29°47' W 092°12'1 1.4
2018-Jun-10 22:31N 29°47' W 092°12'1 1.2
2018-Jun-10 22:01N 29°47' W 092°11'0 0.0
2018-Jun-10 21:31N 29°47' W 092°11'0 0.0
2018-Jun-10 21:01N 29°47' W 092°11'0 0.0
2018-Jun-10 20:31N 29°47' W 092°11'0 0.0
2018-Jun-10 20:01N 29°47' W 092°11'0 0.0
2018-Jun-10 19:31N 29°47' W 092°11'0 0.0
2018-Jun-10 19:01N 29°47' W 092°11'0 0.0
2018-Jun-10 18:31N 29°47' W 092°11'0 0.0
2018-Jun-10 18:01N 29°47' W 092°11'0 0.0
2018-Jun-10 17:30N 29°47' W 092°11'0 0.0
2018-Jun-10 17:01N 29°47' W 092°11'0 0.0
2018-Jun-10 16:31N 29°47' W 092°11'0 0.2
2018-Jun-10 16:01N 29°47' W 092°11'1 2.4
2018-Jun-10 15:31N 29°47' W 092°10'0 0.5
2018-Jun-10 15:01N 29°47' W 092°09'0 0.0
2018-Jun-10 14:31N 29°47' W 092°09'0 0.0
2018-Jun-10 13:31N 29°47' W 092°09'1 1.1
2018-Jun-10 13:01N 29°47' W 092°09'1 2.7
2018-Jun-10 12:30N 29°47' W 092°07'1 1.7
2018-Jun-10 12:00N 29°48' W 092°06'1 2.1
2018-Jun-10 11:31N 29°48' W 092°05'1 2.9
2018-Jun-10 11:00N 29°49' W 092°04'3 5.5
2018-Jun-10 10:31N 29°50' W 092°01'3 5.4
2018-Jun-10 10:00N 29°50' W 091°58'3 5.5
2018-Jun-10 09:31N 29°51' W 091°55'0 0.0
2018-Jun-08 17:20N 29°51' W 091°55'2 6.1
2018-Jun-08 16:57N 29°50' W 091°57'3 6.1
2018-Jun-08 16:27N 29°50' W 092°01'3 6.1
2018-Jun-08 15:59N 29°48' W 092°04'3 6.1
2018-Jun-08 15:31N 29°47' W 092°07'3 6.0
2018-Jun-08 15:00N 29°47' W 092°10'2 4.1
2018-Jun-08 14:31N 29°47' W 092°12'2 3.5
2018-Jun-08 14:00N 29°48' W 092°14'0 0.2
2018-Jun-08 13:30N 29°48' W 092°14'2 3.2
2018-Jun-08 13:01N 29°49' W 092°16'3 5.7
2018-Jun-08 12:31N 29°50' W 092°19'3 5.6
2018-Jun-08 11:59N 29°51' W 092°22'2 3.2
2018-Jun-08 11:30N 29°53' W 092°23'36 5.4
2018-Jun-08 04:47N 29°56' W 093°05'2 5.5
2018-Jun-08 04:30N 29°56' W 093°06'2 4.3
2018-Jun-08 04:00N 29°56' W 093°09'2 4.1
2018-Jun-08 03:30N 29°57' W 093°11'2 4.3
2018-Jun-08 03:01N 29°59' W 093°12'2 4.2
2018-Jun-08 02:31N 30°01' W 093°14'2 3.6
2018-Jun-08 02:01N 30°02' W 093°15'1 2.5
2018-Jun-08 01:30N 30°03' W 093°16'2 3.2
2018-Jun-08 01:00N 30°05' W 093°17'1 2.7
2018-Jun-08 00:30N 30°05' W 093°18'1 2.3
2018-Jun-08 00:00N 30°06' W 093°19'0 0.1
2018-Jun-07 23:30N 30°06' W 093°19'0 0.1
2018-Jun-07 23:00N 30°06' W 093°19'0 0.0
2018-Jun-07 22:30N 30°06' W 093°19'0 0.1
2018-Jun-07 22:00N 30°06' W 093°19'0 0.0
2018-Jun-07 21:30N 30°06' W 093°19'0 0.0
2018-Jun-07 21:00N 30°06' W 093°19'0 0.0
2018-Jun-07 20:30N 30°06' W 093°19'0 0.0
2018-Jun-07 20:00N 30°06' W 093°19'0 0.0
2018-Jun-07 19:30N 30°06' W 093°19'0 0.1
2018-Jun-07 19:00N 30°06' W 093°19'0 0.0
2018-Jun-07 18:30N 30°06' W 093°19'0 0.1
2018-Jun-07 18:00N 30°06' W 093°19'0 0.1
2018-Jun-07 17:30N 30°06' W 093°19'0 0.1
2018-Jun-07 17:00N 30°06' W 093°19'0 0.1
2018-Jun-07 16:30N 30°06' W 093°19'0 0.0
2018-Jun-07 16:00N 30°06' W 093°19'0 0.0
2018-Jun-07 15:30N 30°06' W 093°19'0 0.0
2018-Jun-07 15:00N 30°06' W 093°19'0 0.0
2018-Jun-07 14:30N 30°06' W 093°19'0 0.0
2018-Jun-07 14:00N 30°06' W 093°19'0 0.0
2018-Jun-07 13:30N 30°06' W 093°19'0 0.0
2018-Jun-07 13:00N 30°06' W 093°19'0 0.0
2018-Jun-07 12:30N 30°06' W 093°19'0 0.0
2018-Jun-07 12:00N 30°06' W 093°19'0 0.0
2018-Jun-07 11:30N 30°06' W 093°19'0 0.1
2018-Jun-07 11:00N 30°06' W 093°19'0 0.0
2018-Jun-07 10:30N 30°06' W 093°19'0 0.0
2018-Jun-07 10:00N 30°06' W 093°19'0 0.0
2018-Jun-07 09:30N 30°06' W 093°19'0 0.0
2018-Jun-07 09:00N 30°06' W 093°19'0 0.0
2018-Jun-07 08:30N 30°06' W 093°19'0 0.0
2018-Jun-07 08:00N 30°06' W 093°19'0 0.0
2018-Jun-07 07:30N 30°06' W 093°19'0 0.1
2018-Jun-07 07:00N 30°06' W 093°19'0 0.0
2018-Jun-07 06:30N 30°06' W 093°19'0 0.0
2018-Jun-07 06:00N 30°06' W 093°19'0 0.1
2018-Jun-07 05:30N 30°06' W 093°19'0 0.0
2018-Jun-07 05:00N 30°06' W 093°19'0 0.0
2018-Jun-07 04:30N 30°06' W 093°19'0 0.2
2018-Jun-07 04:00N 30°06' W 093°19'0 0.0
2018-Jun-07 03:30N 30°06' W 093°19'0 0.0
2018-Jun-07 03:00N 30°06' W 093°19'0 0.0
2018-Jun-07 02:30N 30°06' W 093°19'0 0.0
2018-Jun-07 02:00N 30°06' W 093°19'0 0.0
2018-Jun-07 01:30N 30°06' W 093°19'2 3.6
2018-Jun-07 01:00N 30°05' W 093°20'2 4.1
2018-Jun-07 00:30N 30°04' W 093°22'3 5.4
2018-Jun-07 00:00N 30°04' W 093°26'3 5.7
2018-Jun-06 23:30N 30°04' W 093°29'3 5.3
2018-Jun-06 22:59N 30°04' W 093°32'2 4.5
2018-Jun-06 22:30N 30°04' W 093°35'3 5.8
2018-Jun-06 22:00N 30°04' W 093°38'3 6.3
2018-Jun-06 21:30N 30°03' W 093°42'3 5.4
2018-Jun-06 21:00N 30°02' W 093°44'3 6.3
2018-Jun-06 20:30N 29°60' W 093°47'3 6.8
2018-Jun-06 20:00N 29°58' W 093°50'3 5.6
2018-Jun-06 19:30N 29°59' W 093°53'0 0.1
2018-Jun-06 19:00N 29°59' W 093°54'2 3.8
2018-Jun-06 18:30N 29°58' W 093°52'0 0.8
2018-Jun-06 18:00N 29°59' W 093°52'3 5.7
2018-Jun-06 17:30N 29°60' W 093°55'2 3.5
2018-Jun-06 17:00N 29°59' W 093°53'3 5.4
2018-Jun-06 16:30N 29°56' W 093°52'4 7.2
2018-Jun-06 16:00N 29°53' W 093°55'3 6.5
2018-Jun-06 15:30N 29°51' W 093°57'3 5.0
2018-Jun-06 15:00N 29°49' W 093°59'3 5.1
2018-Jun-06 14:30N 29°47' W 094°01'2 4.9
2018-Jun-06 14:00N 29°46' W 094°03'1 2.7
2018-Jun-06 13:30N 29°45' W 094°04'3 5.4
2018-Jun-06 13:00N 29°43' W 094°07'3 5.1
2018-Jun-06 12:30N 29°42' W 094°09'2 5.0
2018-Jun-06 12:00N 29°41' W 094°12'3 5.3
2018-Jun-06 11:30N 29°40' W 094°15'1 3.0
2018-Jun-06 11:00N 29°39' W 094°16'3 5.5
2018-Jun-06 10:30N 29°38' W 094°19'3 5.6
2018-Jun-06 10:00N 29°36' W 094°22'2 4.8
2018-Jun-06 09:30N 29°36' W 094°24'2 3.2
2018-Jun-06 09:00N 29°34' W 094°25'7 5.5
2018-Jun-06 07:39N 29°30' W 094°32'3 5.9
2018-Jun-06 07:13N 29°29' W 094°35'1 5.8
2018-Jun-06 07:00N 29°29' W 094°36'3 6.0
2018-Jun-06 06:30N 29°28' W 094°39'4 4.6
2018-Jun-06 05:39N 29°26' W 094°43'0 0.0
2018-Jun-06 04:48N 29°26' W 094°43'0 0.1
2018-Jun-06 04:29N 29°26' W 094°43'0 0.3
2018-Jun-06 03:57N 29°25' W 094°43'0 0.2
2018-Jun-06 03:30N 29°26' W 094°43'0 0.2
2018-Jun-06 02:51N 29°26' W 094°43'0 0.2
2018-Jun-06 02:30N 29°26' W 094°43'0 0.0
2018-Jun-06 02:00N 29°26' W 094°43'0 0.0
2018-Jun-06 01:30N 29°26' W 094°43'0 0.5
2018-Jun-06 01:00N 29°26' W 094°43'1 2.1
2018-Jun-06 00:30N 29°25' W 094°44'3 6.0
2018-Jun-06 00:00N 29°23' W 094°47'4 7.7
2018-Jun-05 23:30N 29°20' W 094°50'4 7.4
2018-Jun-05 22:59N 29°18' W 094°53'3 5.7
2018-Jun-05 22:30N 29°17' W 094°56'3 6.1
2018-Jun-05 22:00N 29°16' W 094°59'3 6.3
2018-Jun-05 21:29N 29°13' W 095°02'3 6.1
2018-Jun-05 21:00N 29°12' W 095°04'3 6.8
2018-Jun-05 20:30N 29°10' W 095°08'4 7.5
2018-Jun-05 20:00N 29°07' W 095°11'4 7.6
2018-Jun-05 19:30N 29°04' W 095°13'4 8.0
2018-Jun-05 19:00N 29°00' W 095°15'4 8.2
2018-Jun-05 18:30N 28°57' W 095°18'4 7.7
2018-Jun-05 17:59N 28°55' W 095°21'  

Dump ship's entire track history